createdAt,value
2023-04-12T00:01:47.838Z,1.90
2023-04-12T00:04:18.172Z,2.20
2023-04-12T00:06:48.423Z,1.87
2023-04-12T00:09:18.211Z,2.17
2023-04-12T00:11:48.176Z,1.60
2023-04-12T00:14:18.057Z,1.57
2023-04-12T00:16:47.855Z,1.73
2023-04-12T00:19:18.128Z,1.80
2023-04-12T00:21:47.924Z,1.67
2023-04-12T00:24:18.298Z,2.12
2023-04-12T00:26:48.141Z,1.70
2023-04-12T00:29:17.974Z,1.57
2023-04-12T00:31:48.632Z,2.08
2023-04-12T00:34:18.249Z,1.90
2023-04-12T00:36:49.033Z,1.70
2023-04-12T00:39:18.885Z,2.10
2023-04-12T00:41:48.849Z,1.90
2023-04-12T00:44:18.817Z,1.72
2023-04-12T00:46:48.787Z,1.70
2023-04-12T00:49:19.172Z,1.80
2023-04-12T00:51:48.960Z,1.93
2023-04-12T00:54:20.271Z,1.40
2023-04-12T00:56:50.599Z,2.17
2023-04-12T00:59:20.462Z,1.73
2023-04-12T01:01:50.324Z,1.83
2023-04-12T01:04:22.222Z,1.53
2023-04-12T01:07:07.238Z,1.60
2023-04-12T01:10:07.811Z,1.30
2023-04-12T01:12:46.964Z,1.50
2023-04-12T01:15:18.615Z,2.13
2023-04-12T01:18:00.521Z,1.40
2023-04-12T01:20:37.375Z,1.98
2023-04-12T01:23:31.334Z,1.57
2023-04-12T01:26:20.637Z,1.80
2023-04-12T01:28:53.645Z,1.63
2023-04-12T01:31:26.032Z,1.80
2023-04-12T01:33:58.008Z,2.10
2023-04-12T01:36:29.197Z,1.40
2023-04-12T01:38:59.924Z,1.62
2023-04-12T01:41:29.804Z,1.63
2023-04-12T01:43:59.682Z,2.10
2023-04-12T01:46:29.730Z,1.83
2023-04-12T01:49:00.260Z,2.80
2023-04-12T01:51:54.191Z,1.98
2023-04-12T01:54:31.188Z,1.82
2023-04-12T01:57:03.809Z,3.13
2023-04-12T01:59:42.170Z,2.23
2023-04-12T02:02:14.017Z,2.40
2023-04-12T02:04:45.632Z,1.90
2023-04-12T02:07:18.857Z,2.37
2023-04-12T02:09:48.686Z,2.43
2023-04-12T02:12:20.201Z,2.80
2023-04-12T02:14:51.718Z,2.23
2023-04-12T02:17:21.814Z,2.33
2023-04-12T02:19:52.026Z,2.27
2023-04-12T02:22:21.789Z,2.00
2023-04-12T02:24:52.061Z,2.00
2023-04-12T02:27:21.846Z,2.00
2023-04-12T02:29:51.749Z,1.70
2023-04-12T02:32:21.654Z,2.03
2023-04-12T02:34:51.700Z,2.10
2023-04-12T02:37:22.396Z,1.90
2023-04-12T02:39:54.072Z,2.20
2023-04-12T02:42:24.489Z,2.17
2023-04-12T02:44:54.339Z,1.73
2023-04-12T02:47:25.970Z,1.87
2023-04-12T02:49:56.320Z,1.63
2023-04-12T02:52:26.563Z,2.12
2023-04-12T02:55:00.983Z,2.47
2023-04-12T02:57:31.492Z,1.65
2023-04-12T03:00:01.695Z,1.93
2023-04-12T03:02:36.229Z,2.03
2023-04-12T03:05:08.780Z,1.70
2023-04-12T03:07:40.647Z,1.90
2023-04-12T03:10:13.145Z,2.05
2023-04-12T03:12:44.695Z,1.83
2023-04-12T03:15:17.858Z,1.70
2023-04-12T03:17:54.994Z,1.70
2023-04-12T03:20:27.949Z,1.90
2023-04-12T03:23:05.261Z,2.07
2023-04-12T03:25:37.372Z,1.83
2023-04-12T03:28:11.900Z,1.90
2023-04-12T03:30:43.530Z,2.00
2023-04-12T03:33:13.815Z,1.85
2023-04-12T03:35:45.152Z,1.73
2023-04-12T03:38:15.810Z,2.10
2023-04-12T03:40:45.828Z,1.80
2023-04-12T03:43:16.150Z,1.73
2023-04-12T03:45:46.009Z,1.70
2023-04-12T03:48:16.738Z,1.80
2023-04-12T03:50:48.359Z,1.70
2023-04-12T03:53:19.871Z,2.00
2023-04-12T03:55:50.036Z,1.60
2023-04-12T03:58:20.739Z,1.67
2023-04-12T04:00:50.795Z,1.87
2023-04-12T04:03:22.763Z,1.50
2023-04-12T04:05:55.161Z,1.67
2023-04-12T04:08:24.883Z,1.90
2023-04-12T04:10:57.048Z,1.90
2023-04-12T04:13:28.697Z,2.13
2023-04-12T04:16:09.498Z,1.73
2023-04-12T04:18:40.032Z,2.10
2023-04-12T04:21:11.119Z,1.83
2023-04-12T04:23:43.594Z,2.07
2023-04-12T04:26:13.748Z,1.93
2023-04-12T04:28:45.886Z,2.10
2023-04-12T04:31:17.740Z,1.70
2023-04-12T04:33:49.463Z,1.93
2023-04-12T04:36:19.833Z,2.00
2023-04-12T04:38:51.365Z,1.60
2023-04-12T04:41:22.961Z,2.00
2023-04-12T04:43:55.314Z,2.08
2023-04-12T04:46:26.117Z,1.93
2023-04-12T04:48:55.825Z,2.20
2023-04-12T04:51:26.111Z,2.13
2023-04-12T04:53:57.371Z,2.13
2023-04-12T04:56:27.209Z,2.60
2023-04-12T04:58:57.738Z,2.05
2023-04-12T05:01:28.566Z,2.00
2023-04-12T05:03:59.956Z,2.53
2023-04-12T05:06:30.882Z,2.22
2023-04-12T05:09:01.737Z,2.63
2023-04-12T05:11:32.637Z,2.50
2023-04-12T05:14:02.627Z,2.40
2023-04-12T05:16:32.483Z,2.57
2023-04-12T05:19:02.602Z,2.00
2023-04-12T05:21:33.830Z,2.40
2023-04-12T05:24:03.819Z,2.43
2023-04-12T05:26:35.114Z,2.40
2023-04-12T05:29:06.513Z,2.57
2023-04-12T05:31:36.387Z,2.90
2023-04-12T05:34:10.443Z,2.64
2023-04-12T05:36:41.973Z,2.90
2023-04-12T05:39:11.810Z,2.47
2023-04-12T05:41:41.636Z,2.43
2023-04-12T05:44:12.855Z,2.58
2023-04-12T05:46:42.855Z,2.57
2023-04-12T05:49:12.795Z,2.33
2023-04-12T05:51:42.578Z,2.77
2023-04-12T05:54:13.773Z,2.60
2023-04-12T05:56:43.566Z,2.67
2023-04-12T05:59:13.890Z,2.73
2023-04-12T06:01:44.566Z,2.90
2023-04-12T06:04:16.690Z,2.97
2023-04-12T06:06:47.431Z,2.10
2023-04-12T06:09:17.203Z,2.50
2023-04-12T06:11:47.092Z,2.37
2023-04-12T06:14:16.961Z,2.50
2023-04-12T06:16:47.695Z,2.40
2023-04-12T06:19:18.073Z,2.58
2023-04-12T06:21:48.284Z,2.70
2023-04-12T06:24:18.151Z,2.40
2023-04-12T06:26:48.496Z,2.73
2023-04-12T06:29:18.389Z,2.67
2023-04-12T06:31:48.745Z,2.20
2023-04-12T06:34:18.238Z,2.60
2023-04-12T06:36:48.220Z,2.63
2023-04-12T06:39:18.072Z,2.57
2023-04-12T06:41:48.182Z,2.70
2023-04-12T06:44:19.633Z,2.73
2023-04-12T06:46:49.533Z,2.80
2023-04-12T06:49:19.612Z,2.87
2023-04-12T06:51:49.504Z,3.10
2023-04-12T06:54:19.285Z,2.67
2023-04-12T06:56:49.398Z,2.80
2023-04-12T06:59:19.873Z,2.65
2023-04-12T07:01:49.712Z,2.57
2023-04-12T07:04:19.764Z,3.20
2023-04-12T07:06:50.002Z,3.42
2023-04-12T07:09:20.090Z,3.10
2023-04-12T07:11:49.848Z,2.65
2023-04-12T07:14:19.891Z,2.67
2023-04-12T07:16:49.803Z,2.97
2023-04-12T07:19:20.084Z,3.13
2023-04-12T07:21:50.407Z,3.15
2023-04-12T07:24:20.359Z,3.10
2023-04-12T07:26:50.862Z,3.20
2023-04-12T07:29:20.828Z,2.60
2023-04-12T07:31:50.847Z,2.67
2023-04-12T07:34:21.393Z,3.40
2023-04-12T07:36:51.397Z,3.00
2023-04-12T07:39:21.410Z,2.97
2023-04-12T07:41:52.185Z,2.80
2023-04-12T07:44:22.162Z,3.30
2023-04-12T07:46:52.191Z,3.67
2023-04-12T07:49:22.420Z,4.17
2023-04-12T07:51:52.626Z,3.50
2023-04-12T07:54:23.674Z,3.30
2023-04-12T07:57:01.775Z,2.65
2023-04-12T07:59:35.998Z,3.42
2023-04-12T08:02:06.493Z,3.93
2023-04-12T08:04:36.808Z,2.67
2023-04-12T08:07:06.701Z,3.30
2023-04-12T08:09:36.946Z,3.10
2023-04-12T08:12:07.228Z,2.80
2023-04-12T08:14:39.115Z,2.70
2023-04-12T08:17:09.208Z,2.73
2023-04-12T08:19:39.483Z,2.58
2023-04-12T08:22:10.364Z,3.37
2023-04-12T08:24:41.577Z,2.65
2023-04-12T08:27:13.515Z,2.90
2023-04-12T08:29:43.759Z,2.72
2023-04-12T08:32:13.751Z,3.10
2023-04-12T08:34:46.064Z,2.98
2023-04-12T08:37:16.907Z,4.13
2023-04-12T08:39:47.118Z,2.62
2023-04-12T08:42:17.307Z,3.03
2023-04-12T08:44:48.136Z,2.70
2023-04-12T08:47:18.667Z,2.42
2023-04-12T08:49:48.648Z,2.70
2023-04-12T08:52:18.745Z,2.65
2023-04-12T08:54:48.712Z,2.53
2023-04-12T08:57:19.994Z,2.70
2023-04-12T08:59:53.124Z,2.77
2023-04-12T09:02:23.282Z,2.87
2023-04-12T09:04:54.075Z,3.20
2023-04-12T09:07:26.393Z,3.37
2023-04-12T09:09:56.532Z,3.23
2023-04-12T09:12:27.138Z,3.33
2023-04-12T09:15:14.029Z,3.53
2023-04-12T09:17:44.492Z,3.80
2023-04-12T09:20:19.759Z,4.20
2023-04-12T09:22:50.053Z,4.30
2023-04-12T09:25:20.093Z,4.10
2023-04-12T09:27:52.465Z,3.67
2023-04-12T09:30:22.444Z,4.47
2023-04-12T09:32:53.506Z,3.97
2023-04-12T09:35:35.785Z,3.10
2023-04-12T09:38:09.658Z,3.30
2023-04-12T09:40:40.066Z,3.37
2023-04-12T09:43:10.705Z,2.97
2023-04-12T09:45:40.726Z,3.45
2023-04-12T09:48:13.672Z,3.30
2023-04-12T09:50:44.543Z,3.20
2023-04-12T09:53:18.486Z,2.83
2023-04-12T09:55:49.271Z,3.15
2023-04-12T09:58:21.970Z,3.17
2023-04-12T10:00:52.347Z,3.30
2023-04-12T10:03:22.834Z,2.87
2023-04-12T10:05:52.798Z,3.97
2023-04-12T10:08:27.165Z,3.10
2023-04-12T10:10:57.446Z,2.80
2023-04-12T10:13:29.596Z,3.12
2023-04-12T10:16:01.243Z,3.80
2023-04-12T10:18:32.266Z,3.30
2023-04-12T10:21:02.730Z,3.10
2023-04-12T10:23:36.383Z,2.85
2023-04-12T10:26:06.932Z,2.70
2023-04-12T10:28:37.677Z,3.83
2023-04-12T10:31:13.671Z,3.17
2023-04-12T10:33:44.154Z,3.03
2023-04-12T10:36:15.047Z,3.03
2023-04-12T10:38:50.172Z,2.35
2023-04-12T10:41:22.048Z,2.83
2023-04-12T10:43:52.981Z,2.70
2023-04-12T10:46:48.684Z,2.90
2023-04-12T10:49:19.133Z,3.07
2023-04-12T10:52:13.102Z,3.97
2023-04-12T10:54:43.303Z,2.90
2023-04-12T10:57:33.715Z,3.27
2023-04-12T11:00:03.907Z,2.47
2023-04-12T11:02:35.899Z,3.13
2023-04-12T11:05:10.392Z,2.44
2023-04-12T11:08:01.885Z,3.08
2023-04-12T11:10:48.349Z,3.07
2023-04-12T11:13:21.401Z,2.42
2023-04-12T11:15:59.869Z,2.80
2023-04-12T11:18:30.624Z,2.25
2023-04-12T11:21:00.811Z,2.40
2023-04-12T11:23:32.711Z,3.37
2023-04-12T11:26:04.599Z,2.80
2023-04-12T11:28:35.647Z,3.50
2023-04-12T11:31:06.974Z,3.27
2023-04-12T11:33:38.221Z,3.10
2023-04-12T11:36:13.074Z,2.53
2023-04-12T11:38:43.885Z,3.27
2023-04-12T11:41:16.782Z,3.10
2023-04-12T11:43:48.489Z,3.27
2023-04-12T11:46:19.732Z,3.10
2023-04-12T11:48:49.842Z,4.13
2023-04-12T11:51:22.324Z,2.37
2023-04-12T11:53:57.258Z,2.97
2023-04-12T11:56:27.684Z,2.52
2023-04-12T11:58:57.582Z,2.93
2023-04-12T12:01:29.114Z,2.33
2023-04-12T12:04:03.039Z,2.67
2023-04-12T12:06:33.547Z,2.07
2023-04-12T12:09:03.918Z,1.97
2023-04-12T12:11:34.218Z,1.98
2023-04-12T12:14:04.531Z,1.53
2023-04-12T12:16:35.914Z,1.85
2023-04-12T12:19:06.059Z,1.90
2023-04-12T12:21:35.984Z,2.00
2023-04-12T12:24:06.028Z,1.20
2023-04-12T12:26:37.362Z,1.80
2023-04-12T12:29:08.828Z,2.20
2023-04-12T12:31:40.213Z,1.73
2023-04-12T12:34:13.088Z,2.07
2023-04-12T12:36:42.953Z,2.40
2023-04-12T12:39:15.293Z,2.58
2023-04-12T12:41:45.239Z,2.10
2023-04-12T12:44:17.031Z,2.65
2023-04-12T12:46:53.396Z,2.60
2023-04-12T12:49:19.521Z,1.75
2023-04-12T12:51:49.447Z,2.17
2023-04-12T12:54:38.644Z,1.63
2023-04-12T12:56:52.737Z,1.63
2023-04-12T12:59:24.680Z,1.63
2023-04-12T13:01:54.633Z,2.05
2023-04-12T13:04:24.765Z,2.30
2023-04-12T13:06:54.578Z,1.67
2023-04-12T13:09:24.532Z,2.23
2023-04-12T13:11:54.466Z,1.73
2023-04-12T13:14:24.313Z,1.77
2023-04-12T13:16:54.085Z,1.45
2023-04-12T13:19:24.066Z,1.83
2023-04-12T13:21:53.912Z,1.80
2023-04-12T13:24:23.828Z,1.43
2023-04-12T13:26:53.680Z,1.60
2023-04-12T13:29:23.501Z,2.40
2023-04-12T13:31:53.400Z,1.77
2023-04-12T13:34:23.644Z,2.10
2023-04-12T13:36:53.473Z,1.43
2023-04-12T13:39:23.417Z,1.17
2023-04-12T13:41:53.462Z,1.00
2023-04-12T13:44:23.286Z,1.27
2023-04-12T13:46:53.056Z,1.00
2023-04-12T13:49:22.895Z,1.47
2023-04-12T13:51:53.173Z,1.50
2023-04-12T13:54:23.298Z,1.82
2023-04-12T13:56:53.204Z,1.50
2023-04-12T13:59:23.056Z,1.40
2023-04-12T14:01:53.013Z,1.55
2023-04-12T14:04:23.371Z,1.32
2023-04-12T14:06:53.274Z,1.53
2023-04-12T14:09:30.581Z,1.90
2023-04-12T14:12:01.592Z,1.57
2023-04-12T14:14:31.368Z,1.30
2023-04-12T14:17:01.978Z,1.43
2023-04-12T14:19:32.572Z,1.37
2023-04-12T14:22:02.644Z,1.93
2023-04-12T14:24:32.500Z,1.30
2023-04-12T14:27:02.376Z,1.70
2023-04-12T14:29:32.283Z,2.10
2023-04-12T14:32:02.301Z,1.60
2023-04-12T14:34:32.136Z,1.90
2023-04-12T14:37:02.050Z,1.93
2023-04-12T14:39:31.962Z,1.70
2023-04-12T14:42:02.834Z,1.80
2023-04-12T14:44:32.938Z,1.40
2023-04-12T14:47:02.848Z,1.60
2023-04-12T14:49:33.557Z,2.10
2023-04-12T14:52:04.397Z,1.83
2023-04-12T14:54:34.608Z,1.47
2023-04-12T14:57:04.535Z,1.30
2023-04-12T14:59:34.561Z,1.47
2023-04-12T15:02:05.369Z,1.37
2023-04-12T15:04:35.566Z,1.30
2023-04-12T15:07:05.699Z,0.47
2023-04-12T15:09:35.721Z,0.43
2023-04-12T15:12:07.023Z,0.57
2023-04-12T15:14:36.976Z,0.43
2023-04-12T15:17:06.566Z,0.55
2023-04-12T15:19:36.653Z,0.30
2023-04-12T15:22:06.577Z,0.50
2023-04-12T15:24:36.425Z,0.90
2023-04-12T15:27:06.921Z,0.70
2023-04-12T15:29:36.738Z,0.73
2023-04-12T15:32:08.845Z,1.20
2023-04-12T15:34:39.008Z,1.30
2023-04-12T15:37:09.993Z,0.90
2023-04-12T15:39:41.522Z,0.80
2023-04-12T15:42:13.100Z,1.18
2023-04-12T15:44:45.110Z,1.40
2023-04-12T15:47:14.905Z,0.63
2023-04-12T15:49:44.743Z,1.70
2023-04-12T15:52:16.700Z,1.17
2023-04-12T15:54:46.825Z,1.17
2023-04-12T15:57:17.224Z,0.70
2023-04-12T15:59:47.775Z,1.00
2023-04-12T16:02:18.141Z,1.70
2023-04-12T16:04:48.642Z,1.33
2023-04-12T16:07:20.904Z,0.65
2023-04-12T16:09:51.005Z,1.10
2023-04-12T16:12:20.918Z,1.00
2023-04-12T16:14:51.880Z,1.60
2023-04-12T16:17:21.720Z,1.30
2023-04-12T16:19:51.505Z,1.00
2023-04-12T16:22:21.553Z,2.92
2023-04-12T16:24:52.307Z,2.17
2023-04-12T16:27:23.622Z,0.53
2023-04-12T16:29:53.674Z,1.00
2023-04-12T16:32:23.208Z,0.90
2023-04-12T16:34:53.470Z,1.00
2023-04-12T16:37:23.318Z,1.93
2023-04-12T16:39:53.181Z,1.40
2023-04-12T16:42:24.500Z,0.80
2023-04-12T16:44:54.488Z,1.17
2023-04-12T16:47:24.627Z,0.93
2023-04-12T16:49:54.822Z,1.30
2023-04-12T16:52:24.388Z,1.20
2023-04-12T16:54:54.232Z,1.20
2023-04-12T16:57:24.589Z,1.30
2023-04-12T16:59:55.892Z,1.13
2023-04-12T17:02:26.186Z,1.20
2023-04-12T17:04:56.217Z,1.60
2023-04-12T17:07:26.067Z,1.43
2023-04-12T17:09:56.216Z,1.30
2023-04-12T17:12:26.495Z,1.37
2023-04-12T17:14:56.359Z,1.67
2023-04-12T17:17:25.919Z,1.50
2023-04-12T17:19:55.946Z,1.60
2023-04-12T17:22:25.914Z,1.90
2023-04-12T17:24:56.034Z,2.40
2023-04-12T17:27:25.871Z,2.40
2023-04-12T17:29:55.847Z,3.20
2023-04-12T17:32:25.895Z,2.23
2023-04-12T17:34:55.838Z,5.13
2023-04-12T17:37:27.711Z,3.50
2023-04-12T17:39:57.608Z,2.10
2023-04-12T17:42:27.720Z,2.30
2023-04-12T17:44:57.800Z,2.13
2023-04-12T17:47:27.751Z,2.03
2023-04-12T17:49:57.698Z,2.00
2023-04-12T17:52:27.902Z,2.27
2023-04-12T17:54:57.788Z,2.43
2023-04-12T17:57:27.687Z,2.73
2023-04-12T17:59:58.231Z,3.00
2023-04-12T18:02:28.537Z,2.70
2023-04-12T18:04:58.603Z,2.93
2023-04-12T18:07:30.110Z,3.30
2023-04-12T18:10:02.347Z,3.35
2023-04-12T18:12:32.341Z,4.03
2023-04-12T18:15:03.897Z,3.30
2023-04-12T18:17:33.756Z,3.60
2023-04-12T18:20:05.335Z,3.67
2023-04-12T18:22:35.143Z,4.00
2023-04-12T18:25:08.175Z,3.98
2023-04-12T18:27:40.670Z,4.03
2023-04-12T18:30:11.949Z,4.84
2023-04-12T18:32:42.127Z,5.30
2023-04-12T18:35:12.345Z,5.12
2023-04-12T18:37:43.550Z,4.90
2023-04-12T18:40:15.929Z,4.33
2023-04-12T18:42:46.050Z,4.27
2023-04-12T18:45:15.951Z,4.37
2023-04-12T18:47:46.010Z,4.77
2023-04-12T18:50:17.067Z,4.97
2023-04-12T18:52:46.897Z,4.20
2023-04-12T18:55:16.895Z,4.90
2023-04-12T18:57:48.962Z,5.13
2023-04-12T19:00:19.596Z,7.60
2023-04-12T19:02:49.827Z,6.50
2023-04-12T19:05:21.492Z,6.17
2023-04-12T19:07:52.265Z,7.33
2023-04-12T19:10:23.523Z,8.90
2023-04-12T19:12:53.338Z,11.20
2023-04-12T19:15:23.378Z,14.73
2023-04-12T19:17:53.670Z,13.08
2023-04-12T19:20:23.380Z,11.63
2023-04-12T19:22:53.295Z,11.60
2023-04-12T19:25:25.063Z,9.78
2023-04-12T19:27:54.901Z,8.87
2023-04-12T19:30:24.790Z,7.28
2023-04-12T19:32:54.708Z,6.80
2023-04-12T19:35:25.157Z,6.27
2023-04-12T19:37:55.302Z,5.62
2023-04-12T19:40:24.985Z,5.50
2023-04-12T19:42:55.100Z,4.47
2023-04-12T19:45:26.263Z,5.33
2023-04-12T19:47:56.294Z,4.57
2023-04-12T19:50:25.956Z,6.80
2023-04-12T19:52:55.760Z,4.20
2023-04-12T19:55:25.930Z,3.23
2023-04-12T19:57:56.708Z,4.10
2023-04-12T20:00:27.217Z,3.63
2023-04-12T20:02:58.404Z,3.60
2023-04-12T20:05:28.444Z,3.30
2023-04-12T20:07:58.500Z,3.58
2023-04-12T20:10:28.472Z,3.40
2023-04-12T20:12:58.532Z,3.37
2023-04-12T20:15:28.497Z,3.07
2023-04-12T20:17:58.921Z,3.27
2023-04-12T20:20:28.763Z,2.65
2023-04-12T20:22:58.952Z,4.60
2023-04-12T20:25:28.898Z,2.50
2023-04-12T20:27:58.698Z,2.40
2023-04-12T20:30:28.696Z,2.83
2023-04-12T20:33:00.483Z,2.22
2023-04-12T20:35:30.689Z,2.40
2023-04-12T20:38:00.574Z,2.77
2023-04-12T20:40:30.464Z,2.40
2023-04-12T20:43:00.412Z,2.70
2023-04-12T20:45:30.219Z,2.47
2023-04-12T20:48:00.156Z,2.00
2023-04-12T20:50:30.436Z,2.05
2023-04-12T20:53:00.386Z,1.90
2023-04-12T20:55:32.130Z,1.90
2023-04-12T20:58:03.745Z,1.77
2023-04-12T21:00:34.384Z,1.40
2023-04-12T21:03:04.647Z,1.53
2023-04-12T21:05:34.605Z,1.40
2023-04-12T21:08:07.564Z,1.60
2023-04-12T21:10:37.361Z,1.40
2023-04-12T21:13:07.336Z,1.13
2023-04-12T21:15:37.193Z,0.90
2023-04-12T21:18:08.486Z,1.20
2023-04-12T21:20:38.614Z,0.77
2023-04-12T21:23:08.189Z,0.90
2023-04-12T21:25:38.074Z,1.13
2023-04-12T21:28:09.404Z,1.17
2023-04-12T21:30:41.303Z,1.33
2023-04-12T21:33:12.751Z,0.80
2023-04-12T21:35:43.020Z,1.00
2023-04-12T21:38:13.075Z,1.17
2023-04-12T21:40:42.882Z,1.00
2023-04-12T21:43:12.657Z,1.20
2023-04-12T21:45:42.560Z,0.73
2023-04-12T21:48:14.244Z,0.80
2023-04-12T21:50:44.315Z,0.68
2023-04-12T21:53:14.109Z,0.90
2023-04-12T21:55:43.987Z,0.50
2023-04-12T21:58:14.141Z,0.85
2023-04-12T22:00:44.814Z,0.50
2023-04-12T22:03:14.676Z,0.70
2023-04-12T22:05:48.628Z,0.57
2023-04-12T22:08:16.245Z,0.80
2023-04-12T22:10:46.430Z,0.60
2023-04-12T22:13:17.987Z,0.55
2023-04-12T22:15:48.066Z,0.70
2023-04-12T22:18:17.859Z,0.62
2023-04-12T22:20:48.224Z,0.87
2023-04-12T22:23:18.330Z,0.50
2023-04-12T22:25:49.404Z,0.78
2023-04-12T22:28:18.911Z,0.87
2023-04-12T22:30:48.785Z,0.93
2023-04-12T22:33:18.568Z,0.70
2023-04-12T22:35:48.513Z,0.63
2023-04-12T22:38:19.237Z,0.85
2023-04-12T22:40:49.031Z,0.60
2023-04-12T22:43:20.450Z,0.70
2023-04-12T22:45:51.985Z,0.60
2023-04-12T22:48:23.388Z,0.70
2023-04-12T22:50:54.462Z,1.00
2023-04-12T22:53:25.563Z,0.80
2023-04-12T22:55:56.240Z,0.90
2023-04-12T22:58:26.012Z,0.80
2023-04-12T23:00:56.770Z,1.40
2023-04-12T23:03:28.294Z,0.93
2023-04-12T23:05:58.193Z,1.10
2023-04-12T23:08:28.996Z,0.90
2023-04-12T23:11:00.461Z,1.03
2023-04-12T23:13:35.660Z,1.05
2023-04-12T23:16:08.618Z,0.87
2023-04-12T23:18:38.766Z,0.80
2023-04-12T23:21:11.866Z,0.77
2023-04-12T23:23:43.116Z,0.82
2023-04-12T23:26:13.241Z,1.12
2023-04-12T23:28:43.187Z,0.70
2023-04-12T23:31:13.233Z,0.60
2023-04-12T23:33:44.119Z,0.82
2023-04-12T23:36:14.102Z,1.00
2023-04-12T23:38:44.272Z,0.73
2023-04-12T23:41:14.185Z,0.50
2023-04-12T23:43:44.266Z,0.40
2023-04-12T23:46:14.059Z,0.50
2023-04-12T23:48:43.836Z,0.70
2023-04-12T23:51:13.652Z,1.10
2023-04-12T23:53:45.077Z,1.00
2023-04-12T23:56:14.906Z,0.78
2023-04-12T23:58:44.722Z,0.40
